createdAt,value
2019-04-07T00:00:31.743Z,33.20
2019-04-07T00:03:01.175Z,30.70
2019-04-07T00:05:31.060Z,32.70
2019-04-07T00:07:59.903Z,32.80
2019-04-07T00:10:28.844Z,43.40
2019-04-07T00:12:58.024Z,41.00
2019-04-07T00:15:26.917Z,41.33
2019-04-07T00:17:55.985Z,44.93
2019-04-07T00:20:25.328Z,51.70
2019-04-07T00:22:55.149Z,46.23
2019-04-07T00:25:24.115Z,50.43
2019-04-07T00:27:53.194Z,53.93
2019-04-07T00:30:22.437Z,43.70
2019-04-07T00:32:52.008Z,46.90
2019-04-07T00:35:26.540Z,43.00
2019-04-07T00:37:51.777Z,37.90
2019-04-07T00:40:20.856Z,41.13
2019-04-07T00:42:50.177Z,34.50
2019-04-07T00:45:19.135Z,34.83
2019-04-07T00:47:48.011Z,35.37
2019-04-07T00:50:16.983Z,31.30
2019-04-07T00:52:45.888Z,33.80
2019-04-07T00:55:14.961Z,33.90
2019-04-07T00:57:44.087Z,41.63
2019-04-07T01:00:16.479Z,38.20
2019-04-07T01:02:44.685Z,38.93
2019-04-07T01:05:13.850Z,42.93
2019-04-07T01:07:43.126Z,46.53
2019-04-07T01:10:12.908Z,45.97
2019-04-07T01:12:41.923Z,46.90
2019-04-07T01:15:11.783Z,48.67
2019-04-07T01:17:40.762Z,47.70
2019-04-07T01:20:09.740Z,44.53
2019-04-07T01:22:38.967Z,44.43
2019-04-07T01:25:08.848Z,42.47
2019-04-07T01:27:37.874Z,47.40
2019-04-07T01:30:07.200Z,52.03
2019-04-07T01:32:36.709Z,46.67
2019-04-07T01:35:05.796Z,44.93
2019-04-07T01:37:35.258Z,35.80
2019-04-07T01:40:04.515Z,40.93
2019-04-07T01:42:42.243Z,40.30
2019-04-07T01:45:37.223Z,33.47
2019-04-07T01:48:24.197Z,37.17
2019-04-07T01:51:10.745Z,45.27
2019-04-07T01:53:58.715Z,39.80
2019-04-07T01:56:47.121Z,41.90
2019-04-07T01:59:34.396Z,39.80
2019-04-07T02:02:28.399Z,39.63
2019-04-07T02:05:04.454Z,43.67
2019-04-07T02:07:55.502Z,49.30
2019-04-07T02:10:42.872Z,45.87
2019-04-07T02:13:31.266Z,43.93
2019-04-07T02:16:14.480Z,41.10
2019-04-07T02:18:53.321Z,38.13
2019-04-07T02:21:27.386Z,37.30
2019-04-07T02:24:08.139Z,38.07
2019-04-07T02:26:58.966Z,38.50
2019-04-07T02:29:45.530Z,36.10
2019-04-07T02:32:39.722Z,41.57
2019-04-07T02:35:20.928Z,39.33
2019-04-07T02:37:55.609Z,36.30
2019-04-07T02:40:35.552Z,37.97
2019-04-07T02:43:27.334Z,41.50
2019-04-07T02:46:13.300Z,36.43
2019-04-07T02:49:16.585Z,36.87
2019-04-07T02:52:12.114Z,39.00
2019-04-07T02:54:51.492Z,33.47
2019-04-07T02:57:48.726Z,34.23
2019-04-07T03:00:43.251Z,36.60
2019-04-07T03:03:34.375Z,34.47
2019-04-07T03:06:35.716Z,34.10
2019-04-07T03:08:57.147Z,30.17
2019-04-07T03:11:39.202Z,34.87
2019-04-07T03:14:26.196Z,31.20
2019-04-07T03:17:12.314Z,31.27
2019-04-07T03:19:49.690Z,36.07
2019-04-07T03:22:47.095Z,31.20
2019-04-07T03:25:34.313Z,33.80
2019-04-07T03:28:17.501Z,35.40
2019-04-07T03:31:04.032Z,32.67
2019-04-07T03:33:54.150Z,36.07
2019-04-07T03:37:09.938Z,34.10
2019-04-07T03:39:28.401Z,37.40
2019-04-07T03:42:21.350Z,33.13
2019-04-07T03:44:56.777Z,32.83
2019-04-07T03:47:39.951Z,36.97
2019-04-07T03:50:31.600Z,34.63
2019-04-07T03:53:12.435Z,30.67
2019-04-07T03:56:04.003Z,31.07
2019-04-07T03:58:49.419Z,27.60
2019-04-07T04:01:49.678Z,27.40
2019-04-07T04:04:29.966Z,28.20
2019-04-07T04:07:36.589Z,26.63
2019-04-07T04:10:23.853Z,26.87
2019-04-07T04:13:14.650Z,24.63
2019-04-07T04:15:56.745Z,27.20
2019-04-07T04:18:26.400Z,27.50
2019-04-07T04:20:55.891Z,26.53
2019-04-07T04:23:24.888Z,26.97
2019-04-07T04:25:55.636Z,30.30
2019-04-07T04:28:24.775Z,29.03
2019-04-07T04:30:53.953Z,38.17
2019-04-07T04:33:23.508Z,30.77
2019-04-07T04:35:52.424Z,28.63
2019-04-07T04:38:21.359Z,28.47
2019-04-07T04:40:50.608Z,31.47
2019-04-07T04:43:19.779Z,28.67
2019-04-07T04:45:48.674Z,27.83
2019-04-07T04:48:17.605Z,28.23
2019-04-07T04:50:47.145Z,25.27
2019-04-07T04:53:17.107Z,24.27
2019-04-07T04:55:47.094Z,24.70
2019-04-07T04:58:16.117Z,26.63
2019-04-07T05:00:45.284Z,24.80
2019-04-07T05:03:14.957Z,29.43
2019-04-07T05:05:44.052Z,24.47
2019-04-07T05:08:12.973Z,26.50
2019-04-07T05:10:41.959Z,23.43
2019-04-07T05:13:10.907Z,25.80
2019-04-07T05:15:39.960Z,31.07
2019-04-07T05:18:08.871Z,27.80
2019-04-07T05:20:37.828Z,31.30
2019-04-07T05:23:06.799Z,26.50
2019-04-07T05:25:36.975Z,27.43
2019-04-07T05:28:06.523Z,27.43
2019-04-07T05:30:35.788Z,30.10
2019-04-07T05:33:05.585Z,25.03
2019-04-07T05:35:35.083Z,24.53
2019-04-07T05:38:06.462Z,23.70
2019-04-07T05:40:34.592Z,27.43
2019-04-07T05:43:04.654Z,27.80
2019-04-07T05:45:36.311Z,23.37
2019-04-07T05:48:04.366Z,21.40
2019-04-07T05:50:33.452Z,19.13
2019-04-07T05:53:02.958Z,20.03
2019-04-07T05:55:32.058Z,18.97
2019-04-07T05:58:03.428Z,18.97
2019-04-07T06:00:31.502Z,22.07
2019-04-07T06:03:04.263Z,21.10
2019-04-07T06:05:31.184Z,18.97
2019-04-07T06:08:06.299Z,19.20
2019-04-07T06:10:30.682Z,18.73
2019-04-07T06:12:59.632Z,19.97
2019-04-07T06:15:29.109Z,19.53
2019-04-07T06:18:01.091Z,20.30
2019-04-07T06:20:28.998Z,20.10
2019-04-07T06:22:58.449Z,19.70
2019-04-07T06:25:27.453Z,16.40
2019-04-07T06:27:56.850Z,16.93
2019-04-07T06:30:28.139Z,16.73
2019-04-07T06:32:56.997Z,16.50
2019-04-07T06:35:26.071Z,16.00
2019-04-07T06:37:57.753Z,16.80
2019-04-07T06:40:25.685Z,17.57
2019-04-07T06:42:54.557Z,14.77
2019-04-07T06:45:27.293Z,16.60
2019-04-07T06:48:00.216Z,14.77
2019-04-07T06:50:50.213Z,15.13
2019-04-07T06:53:23.585Z,15.43
2019-04-07T06:56:03.034Z,14.60
2019-04-07T06:58:41.344Z,14.77
2019-04-07T07:01:36.220Z,13.53
2019-04-07T07:04:24.380Z,14.33
2019-04-07T07:07:06.531Z,15.63
2019-04-07T07:09:47.075Z,14.43
2019-04-07T07:12:38.392Z,14.20
2019-04-07T07:15:24.550Z,14.47
2019-04-07T07:18:14.210Z,15.47
2019-04-07T07:21:08.287Z,14.83
2019-04-07T07:23:44.839Z,13.03
2019-04-07T07:26:12.470Z,12.90
2019-04-07T07:28:43.963Z,11.93
2019-04-07T07:31:11.962Z,11.23
2019-04-07T07:33:42.661Z,10.83
2019-04-07T07:36:12.382Z,12.13
2019-04-07T07:38:42.838Z,11.67
2019-04-07T07:41:12.123Z,12.23
2019-04-07T07:43:41.445Z,10.40
2019-04-07T07:46:10.578Z,11.03
2019-04-07T07:48:40.085Z,11.97
2019-04-07T07:51:12.895Z,11.03
2019-04-07T07:53:40.417Z,10.83
2019-04-07T07:56:12.121Z,10.43
2019-04-07T07:58:40.659Z,12.87
2019-04-07T08:01:12.275Z,10.37
2019-04-07T08:03:40.551Z,9.27
2019-04-07T08:06:09.672Z,11.30
2019-04-07T08:08:39.589Z,10.93
2019-04-07T08:11:08.561Z,13.43
2019-04-07T08:13:43.371Z,11.17
2019-04-07T08:16:08.738Z,12.33
2019-04-07T08:18:40.654Z,9.70
2019-04-07T08:21:12.221Z,9.97
2019-04-07T08:23:43.621Z,10.10
2019-04-07T08:26:10.518Z,11.73
2019-04-07T08:28:40.295Z,8.57
2019-04-07T08:31:09.851Z,10.70
2019-04-07T08:33:39.752Z,10.97
2019-04-07T08:36:12.204Z,11.30
2019-04-07T08:38:40.025Z,10.53
2019-04-07T08:41:11.485Z,10.33
2019-04-07T08:43:39.944Z,11.47
2019-04-07T08:46:08.919Z,9.43
2019-04-07T08:48:37.856Z,10.33
2019-04-07T08:51:06.925Z,11.43
2019-04-07T08:53:35.882Z,10.80
2019-04-07T08:56:06.881Z,9.73
2019-04-07T08:58:38.478Z,8.30
2019-04-07T09:01:06.458Z,10.30
2019-04-07T09:03:35.835Z,12.60
2019-04-07T09:06:04.908Z,11.37
2019-04-07T09:08:36.778Z,10.90
2019-04-07T09:11:10.060Z,11.30
2019-04-07T09:13:39.589Z,10.40
2019-04-07T09:16:28.021Z,10.60
2019-04-07T09:19:08.039Z,9.40
2019-04-07T09:21:51.803Z,13.03
2019-04-07T09:24:38.702Z,13.17
2019-04-07T09:27:23.498Z,11.77
2019-04-07T09:30:07.649Z,10.40
2019-04-07T09:32:52.811Z,11.80
2019-04-07T09:35:41.397Z,9.53
2019-04-07T09:38:38.629Z,10.60
2019-04-07T09:41:19.157Z,9.77
2019-04-07T09:44:05.207Z,9.97
2019-04-07T09:46:47.128Z,13.97
2019-04-07T09:49:24.764Z,8.53
2019-04-07T09:52:02.858Z,10.33
2019-04-07T09:54:59.625Z,11.50
2019-04-07T09:57:47.582Z,11.27
2019-04-07T10:00:45.513Z,14.10
2019-04-07T10:03:48.594Z,9.77
2019-04-07T10:06:39.780Z,10.10
2019-04-07T10:09:26.807Z,10.70
2019-04-07T10:12:04.823Z,10.00
2019-04-07T10:14:51.723Z,8.97
2019-04-07T10:17:51.851Z,12.30
2019-04-07T10:20:49.191Z,10.90
2019-04-07T10:23:36.266Z,13.17
2019-04-07T10:26:20.422Z,11.07
2019-04-07T10:29:00.593Z,9.13
2019-04-07T10:31:49.330Z,10.50
2019-04-07T10:34:43.663Z,9.50
2019-04-07T10:37:51.325Z,9.30
2019-04-07T10:40:29.179Z,8.50
2019-04-07T10:43:09.561Z,12.13
2019-04-07T10:45:57.980Z,9.70
2019-04-07T10:48:55.794Z,8.93
2019-04-07T10:51:42.449Z,8.53
2019-04-07T10:54:19.867Z,11.67
2019-04-07T10:57:14.543Z,9.90
2019-04-07T11:00:09.036Z,8.53
2019-04-07T11:02:55.441Z,8.63
2019-04-07T11:05:48.205Z,7.30
2019-04-07T11:08:36.636Z,12.17
2019-04-07T11:11:31.410Z,6.87
2019-04-07T11:14:12.153Z,10.57
2019-04-07T11:17:03.642Z,7.17
2019-04-07T11:19:50.286Z,6.13
2019-04-07T11:22:37.043Z,8.70
2019-04-07T11:25:15.005Z,6.47
2019-04-07T11:28:03.097Z,7.43
2019-04-07T11:30:52.106Z,6.10
2019-04-07T11:33:29.165Z,5.87
2019-04-07T11:36:11.802Z,7.47
2019-04-07T11:38:47.180Z,5.43
2019-04-07T11:41:28.845Z,8.17
2019-04-07T11:44:20.324Z,5.40
2019-04-07T11:47:00.432Z,5.40
2019-04-07T11:49:51.299Z,6.03
2019-04-07T11:52:35.324Z,5.60
2019-04-07T11:55:16.241Z,7.67
2019-04-07T11:58:15.100Z,6.20
2019-04-07T12:01:14.792Z,6.27
2019-04-07T12:04:28.305Z,7.70
2019-04-07T12:07:19.137Z,7.93
2019-04-07T12:10:17.908Z,7.37
2019-04-07T12:13:07.416Z,9.03
2019-04-07T12:16:05.693Z,7.50
2019-04-07T12:19:01.861Z,7.53
2019-04-07T12:21:45.151Z,6.13
2019-04-07T12:24:28.662Z,10.90
2019-04-07T12:27:04.877Z,7.50
2019-04-07T12:29:40.259Z,6.60
2019-04-07T12:32:18.125Z,8.93
2019-04-07T12:35:13.389Z,6.57
2019-04-07T12:38:10.052Z,6.60
2019-04-07T12:40:45.332Z,8.17
2019-04-07T12:43:36.333Z,7.40
2019-04-07T12:46:30.470Z,6.63
2019-04-07T12:49:30.100Z,7.80
2019-04-07T12:52:26.123Z,6.73
2019-04-07T12:55:07.011Z,8.40
2019-04-07T12:57:43.533Z,7.00
2019-04-07T13:00:52.349Z,8.30
2019-04-07T13:03:24.329Z,7.37
2019-04-07T13:06:15.694Z,7.83
2019-04-07T13:09:11.455Z,8.90
2019-04-07T13:12:05.693Z,7.00
2019-04-07T13:14:45.939Z,9.63
2019-04-07T13:17:49.488Z,7.40
2019-04-07T13:20:28.795Z,7.47
2019-04-07T13:23:19.987Z,7.63
2019-04-07T13:25:55.609Z,6.90
2019-04-07T13:28:41.863Z,7.53
2019-04-07T13:31:21.735Z,6.17
2019-04-07T13:34:05.173Z,6.07
2019-04-07T13:37:00.113Z,11.10
2019-04-07T13:39:47.074Z,6.20
2019-04-07T13:42:27.868Z,6.87
2019-04-07T13:45:29.004Z,6.47
2019-04-07T13:48:07.760Z,7.17
2019-04-07T13:50:59.553Z,6.50
2019-04-07T13:53:47.595Z,7.27
2019-04-07T13:56:34.300Z,6.00
2019-04-07T13:59:28.384Z,6.97
2019-04-07T14:02:29.661Z,7.30
2019-04-07T14:05:11.159Z,7.17
2019-04-07T14:07:55.465Z,6.20
2019-04-07T14:10:37.062Z,6.53
2019-04-07T14:13:26.769Z,5.37
2019-04-07T14:16:14.272Z,4.50
2019-04-07T14:18:58.169Z,5.40
2019-04-07T14:21:33.854Z,6.07
2019-04-07T14:24:20.578Z,5.77
2019-04-07T14:27:17.674Z,7.23
2019-04-07T14:30:04.659Z,7.77
2019-04-07T14:32:49.843Z,8.23
2019-04-07T14:35:31.514Z,6.83
2019-04-07T14:38:11.590Z,5.00
2019-04-07T14:41:03.159Z,5.67
2019-04-07T14:43:45.023Z,5.60
2019-04-07T14:46:42.603Z,6.30
2019-04-07T14:49:47.716Z,6.10
2019-04-07T14:52:36.093Z,5.70
2019-04-07T14:55:14.029Z,5.00
2019-04-07T14:58:20.329Z,5.60
2019-04-07T15:01:26.119Z,7.90
2019-04-07T15:03:55.693Z,7.27
2019-04-07T15:06:29.210Z,7.27
2019-04-07T15:09:14.699Z,6.63
2019-04-07T15:11:51.233Z,12.77
2019-04-07T15:14:20.213Z,6.40
2019-04-07T15:16:49.214Z,8.40
2019-04-07T15:19:18.277Z,7.93
2019-04-07T15:21:48.811Z,6.93
2019-04-07T15:24:18.709Z,5.80
2019-04-07T15:26:49.888Z,5.97
2019-04-07T15:29:18.448Z,5.40
2019-04-07T15:31:50.816Z,4.47
2019-04-07T15:34:18.664Z,5.60
2019-04-07T15:36:48.357Z,7.27
2019-04-07T15:39:20.436Z,7.17
2019-04-07T15:41:57.789Z,6.40
2019-04-07T15:44:27.129Z,5.93
2019-04-07T15:46:56.555Z,6.30
2019-04-07T15:49:27.352Z,4.37
2019-04-07T15:51:57.206Z,3.77
2019-04-07T15:54:26.271Z,3.60
2019-04-07T15:56:58.531Z,4.10
2019-04-07T15:59:29.414Z,4.30
2019-04-07T16:01:57.312Z,4.23
2019-04-07T16:04:29.310Z,4.83
2019-04-07T16:06:57.829Z,4.60
2019-04-07T16:09:34.607Z,5.00
2019-04-07T16:11:59.069Z,4.30
2019-04-07T16:14:28.085Z,4.30
2019-04-07T16:16:59.586Z,4.83
2019-04-07T16:19:37.398Z,5.30
2019-04-07T16:21:58.481Z,5.50
2019-04-07T16:24:27.436Z,5.10
2019-04-07T16:26:56.229Z,4.60
2019-04-07T16:29:25.157Z,4.83
2019-04-07T16:31:56.988Z,5.40
2019-04-07T16:34:24.749Z,6.30
2019-04-07T16:36:57.264Z,4.80
2019-04-07T16:39:24.301Z,6.53
2019-04-07T16:41:53.481Z,6.00
2019-04-07T16:44:23.259Z,5.10
2019-04-07T16:46:56.426Z,4.73
2019-04-07T16:49:23.647Z,6.10
2019-04-07T16:51:53.577Z,6.97
2019-04-07T16:54:23.367Z,6.30
2019-04-07T16:56:56.149Z,7.03
2019-04-07T16:59:23.195Z,5.40
2019-04-07T17:01:52.934Z,5.30
2019-04-07T17:04:21.982Z,7.50
2019-04-07T17:07:01.647Z,5.43
2019-04-07T17:09:24.710Z,5.37
2019-04-07T17:11:52.425Z,5.23
2019-04-07T17:14:21.404Z,5.60
2019-04-07T17:16:50.442Z,5.80
2019-04-07T17:19:20.039Z,6.00
2019-04-07T17:21:49.100Z,7.43
2019-04-07T17:24:18.485Z,5.93
2019-04-07T17:26:47.399Z,6.30
2019-04-07T17:29:19.109Z,5.40
2019-04-07T17:31:47.060Z,6.10
2019-04-07T17:34:16.030Z,4.73
2019-04-07T17:36:48.417Z,5.57
2019-04-07T17:39:38.491Z,5.33
2019-04-07T17:42:12.113Z,6.40
2019-04-07T17:45:16.165Z,6.10
2019-04-07T17:48:17.113Z,4.90
2019-04-07T17:51:09.721Z,4.63
2019-04-07T17:53:55.418Z,4.43
2019-04-07T17:56:49.647Z,4.30
2019-04-07T17:59:38.437Z,5.23
2019-04-07T18:02:20.394Z,5.47
2019-04-07T18:05:06.798Z,5.67
2019-04-07T18:07:54.301Z,4.60
2019-04-07T18:10:39.059Z,5.70
2019-04-07T18:13:21.821Z,5.27
2019-04-07T18:16:07.302Z,5.00
2019-04-07T18:18:59.157Z,5.30
2019-04-07T18:21:49.757Z,4.80
2019-04-07T18:24:30.136Z,4.73
2019-04-07T18:27:21.127Z,4.67
2019-04-07T18:30:00.714Z,3.67
2019-04-07T18:33:03.253Z,6.00
2019-04-07T18:36:09.186Z,5.40
2019-04-07T18:39:07.575Z,4.60
2019-04-07T18:41:44.744Z,5.00
2019-04-07T18:44:42.493Z,5.00
2019-04-07T18:47:31.455Z,4.10
2019-04-07T18:50:31.499Z,5.23
2019-04-07T18:53:28.735Z,7.03
2019-04-07T18:56:09.896Z,8.37
2019-04-07T18:59:04.243Z,6.23
2019-04-07T19:01:58.512Z,6.57
2019-04-07T19:04:58.931Z,5.90
2019-04-07T19:07:50.585Z,6.77
2019-04-07T19:10:30.603Z,5.67
2019-04-07T19:13:18.595Z,7.17
2019-04-07T19:16:04.080Z,6.50
2019-04-07T19:18:43.605Z,5.67
2019-04-07T19:21:20.940Z,5.30
2019-04-07T19:24:03.108Z,7.50
2019-04-07T19:26:54.633Z,6.30
2019-04-07T19:29:39.130Z,9.10
2019-04-07T19:32:25.039Z,6.67
2019-04-07T19:35:11.907Z,7.10
2019-04-07T19:37:58.400Z,10.20
2019-04-07T19:40:38.082Z,8.00
2019-04-07T19:43:29.247Z,6.83
2019-04-07T19:46:04.863Z,11.80
2019-04-07T19:48:52.311Z,6.23
2019-04-07T19:52:02.298Z,7.60
2019-04-07T19:54:57.278Z,11.83
2019-04-07T19:57:38.504Z,19.60
2019-04-07T20:00:30.543Z,10.00
2019-04-07T20:03:17.905Z,7.37
2019-04-07T20:06:04.853Z,10.10
2019-04-07T20:08:45.968Z,7.80
2019-04-07T20:11:45.963Z,9.60
2019-04-07T20:14:24.897Z,9.00
2019-04-07T20:17:16.354Z,9.23
2019-04-07T20:20:08.827Z,7.17
2019-04-07T20:22:57.609Z,8.50
2019-04-07T20:25:38.172Z,7.17
2019-04-07T20:28:35.845Z,10.03
2019-04-07T20:31:27.812Z,9.33
2019-04-07T20:34:07.669Z,9.30
2019-04-07T20:36:51.668Z,9.70
2019-04-07T20:39:37.902Z,11.87
2019-04-07T20:42:19.613Z,11.63
2019-04-07T20:45:13.394Z,8.47
2019-04-07T20:47:56.602Z,11.30
2019-04-07T20:50:35.555Z,11.33
2019-04-07T20:53:29.830Z,8.80
2019-04-07T20:56:16.701Z,11.10
2019-04-07T20:59:03.897Z,15.43
2019-04-07T21:02:02.440Z,22.03
2019-04-07T21:04:38.288Z,18.43
2019-04-07T21:07:39.671Z,18.87
2019-04-07T21:10:39.581Z,21.40
2019-04-07T21:13:27.436Z,25.70
2019-04-07T21:16:26.005Z,28.83
2019-04-07T21:19:04.196Z,25.30
2019-04-07T21:21:55.861Z,24.83
2019-04-07T21:24:49.766Z,28.00
2019-04-07T21:27:34.709Z,29.90
2019-04-07T21:30:29.089Z,32.73
2019-04-07T21:33:15.240Z,29.67
2019-04-07T21:36:08.162Z,27.83
2019-04-07T21:38:56.350Z,32.87
2019-04-07T21:41:50.510Z,27.50
2019-04-07T21:44:33.803Z,29.60
2019-04-07T21:47:29.204Z,30.50
2019-04-07T21:50:13.934Z,21.47
2019-04-07T21:53:01.246Z,29.93
2019-04-07T21:55:54.078Z,30.33
2019-04-07T21:58:42.027Z,25.83
2019-04-07T22:01:36.688Z,21.33
2019-04-07T22:04:27.416Z,17.20
2019-04-07T22:07:04.780Z,22.70
2019-04-07T22:09:47.024Z,20.90
2019-04-07T22:12:15.299Z,23.37
2019-04-07T22:14:45.391Z,21.90
2019-04-07T22:17:14.676Z,23.10
2019-04-07T22:19:46.288Z,31.47
2019-04-07T22:22:14.901Z,31.57
2019-04-07T22:24:44.280Z,33.63
2019-04-07T22:27:13.210Z,35.30
2019-04-07T22:29:42.800Z,33.63
2019-04-07T22:32:11.723Z,37.70
2019-04-07T22:34:40.666Z,36.10
2019-04-07T22:37:10.120Z,24.50
2019-04-07T22:39:39.696Z,26.33
2019-04-07T22:42:08.646Z,20.90
2019-04-07T22:44:37.750Z,16.67
2019-04-07T22:47:07.088Z,17.00
2019-04-07T22:49:35.904Z,19.53
2019-04-07T22:52:05.508Z,21.67
2019-04-07T22:54:34.853Z,23.53
2019-04-07T22:57:06.112Z,19.03
2019-04-07T22:59:34.316Z,23.37
2019-04-07T23:02:03.300Z,21.17
2019-04-07T23:04:32.304Z,17.80
2019-04-07T23:07:01.180Z,17.40
2019-04-07T23:09:30.166Z,19.57
2019-04-07T23:12:00.760Z,20.73
2019-04-07T23:14:29.771Z,21.90
2019-04-07T23:16:58.678Z,24.30
2019-04-07T23:19:27.624Z,39.03
2019-04-07T23:21:57.526Z,43.83
2019-04-07T23:24:26.772Z,56.10
2019-04-07T23:26:56.311Z,47.47
2019-04-07T23:29:26.197Z,44.43
2019-04-07T23:31:55.578Z,33.53
2019-04-07T23:34:25.345Z,28.50
2019-04-07T23:36:54.379Z,36.80
2019-04-07T23:39:23.243Z,31.17
2019-04-07T23:41:52.030Z,32.03
2019-04-07T23:44:21.414Z,33.50
2019-04-07T23:46:50.910Z,26.77
2019-04-07T23:49:20.409Z,29.03
2019-04-07T23:51:49.398Z,33.03
2019-04-07T23:54:18.421Z,38.83
2019-04-07T23:56:47.774Z,39.07
2019-04-07T23:59:16.895Z,28.37
